sensor_id;sensor_type;location;lat;lon;timestamp;pressure;altitude;pressure_sealevel;temperature;humidity
67373;BME280;54257;54.496;18.412;2023-02-28T00:01:13;101360.84;;;-6.30;75.06
67373;BME280;54257;54.496;18.412;2023-02-28T00:03:40;101360.58;;;-6.35;74.81
67373;BME280;54257;54.496;18.412;2023-02-28T00:06:08;101364.17;;;-6.38;74.64
67373;BME280;54257;54.496;18.412;2023-02-28T00:08:37;101364.70;;;-6.41;74.76
67373;BME280;54257;54.496;18.412;2023-02-28T00:11:06;101367.48;;;-6.43;74.90
67373;BME280;54257;54.496;18.412;2023-02-28T00:13:36;101373.26;;;-6.46;75.05
67373;BME280;54257;54.496;18.412;2023-02-28T00:16:07;101374.28;;;-6.48;75.26
67373;BME280;54257;54.496;18.412;2023-02-28T00:18:36;101369.75;;;-6.50;75.28
67373;BME280;54257;54.496;18.412;2023-02-28T00:21:03;101363.66;;;-6.52;75.16
67373;BME280;54257;54.496;18.412;2023-02-28T00:23:31;101362.98;;;-6.54;75.33
67373;BME280;54257;54.496;18.412;2023-02-28T00:25:58;101359.42;;;-6.55;75.59
67373;BME280;54257;54.496;18.412;2023-02-28T00:28:25;101358.20;;;-6.54;75.66
67373;BME280;54257;54.496;18.412;2023-02-28T00:30:52;101365.03;;;-6.54;75.65
67373;BME280;54257;54.496;18.412;2023-02-28T00:33:19;101363.63;;;-6.53;75.68
67373;BME280;54257;54.496;18.412;2023-02-28T00:35:46;101357.78;;;-6.50;75.79
67373;BME280;54257;54.496;18.412;2023-02-28T00:38:15;101353.27;;;-6.45;76.05
67373;BME280;54257;54.496;18.412;2023-02-28T00:40:43;101356.93;;;-6.41;76.15
67373;BME280;54257;54.496;18.412;2023-02-28T00:43:10;101355.02;;;-6.37;75.95
67373;BME280;54257;54.496;18.412;2023-02-28T00:45:38;101357.60;;;-6.37;75.57
67373;BME280;54257;54.496;18.412;2023-02-28T00:48:05;101356.45;;;-6.39;75.48
67373;BME280;54257;54.496;18.412;2023-02-28T00:50:33;101359.47;;;-6.39;75.67
67373;BME280;54257;54.496;18.412;2023-02-28T00:52:59;101359.77;;;-6.37;75.43
67373;BME280;54257;54.496;18.412;2023-02-28T00:55:26;101359.10;;;-6.34;75.55
67373;BME280;54257;54.496;18.412;2023-02-28T00:57:53;101361.44;;;-6.30;75.48
67373;BME280;54257;54.496;18.412;2023-02-28T01:00:20;101362.06;;;-6.28;75.33
67373;BME280;54257;54.496;18.412;2023-02-28T01:02:47;101362.70;;;-6.28;75.33
67373;BME280;54257;54.496;18.412;2023-02-28T01:05:14;101362.38;;;-6.28;75.29
67373;BME280;54257;54.496;18.412;2023-02-28T01:07:41;101359.80;;;-6.29;75.15
67373;BME280;54257;54.496;18.412;2023-02-28T01:10:09;101362.33;;;-6.30;75.17
67373;BME280;54257;54.496;18.412;2023-02-28T01:12:36;101363.05;;;-6.30;75.26
67373;BME280;54257;54.496;18.412;2023-02-28T01:15:04;101363.31;;;-6.29;75.20
67373;BME280;54257;54.496;18.412;2023-02-28T01:17:31;101364.80;;;-6.31;75.10
67373;BME280;54257;54.496;18.412;2023-02-28T01:19:58;101364.31;;;-6.34;75.00
67373;BME280;54257;54.496;18.412;2023-02-28T01:22:25;101356.98;;;-6.35;75.01
67373;BME280;54257;54.496;18.412;2023-02-28T01:24:53;101357.45;;;-6.36;75.02
67373;BME280;54257;54.496;18.412;2023-02-28T01:27:20;101353.84;;;-6.38;75.08
67373;BME280;54257;54.496;18.412;2023-02-28T01:29:47;101351.23;;;-6.41;75.02
67373;BME280;54257;54.496;18.412;2023-02-28T01:32:14;101353.44;;;-6.42;74.82
67373;BME280;54257;54.496;18.412;2023-02-28T01:34:41;101354.19;;;-6.44;74.72
67373;BME280;54257;54.496;18.412;2023-02-28T01:37:08;101351.91;;;-6.47;74.85
67373;BME280;54257;54.496;18.412;2023-02-28T01:39:35;101347.95;;;-6.50;74.85
67373;BME280;54257;54.496;18.412;2023-02-28T01:42:02;101345.80;;;-6.53;74.69
67373;BME280;54257;54.496;18.412;2023-02-28T01:45:15;101342.83;;;-6.55;74.69
67373;BME280;54257;54.496;18.412;2023-02-28T01:47:45;101341.05;;;-6.52;74.97
67373;BME280;54257;54.496;18.412;2023-02-28T01:50:16;101340.13;;;-6.52;74.72
67373;BME280;54257;54.496;18.412;2023-02-28T01:52:46;101340.72;;;-6.49;74.58
67373;BME280;54257;54.496;18.412;2023-02-28T01:55:15;101338.73;;;-6.48;74.72
67373;BME280;54257;54.496;18.412;2023-02-28T01:57:49;101343.75;;;-6.49;74.30
67373;BME280;54257;54.496;18.412;2023-02-28T02:00:21;101351.08;;;-6.54;74.12
67373;BME280;54257;54.496;18.412;2023-02-28T02:02:52;101355.05;;;-6.55;73.95
67373;BME280;54257;54.496;18.412;2023-02-28T02:05:23;101353.17;;;-6.54;74.19
67373;BME280;54257;54.496;18.412;2023-02-28T02:07:57;101355.23;;;-6.52;74.36
67373;BME280;54257;54.496;18.412;2023-02-28T02:15:40;101357.67;;;-6.57;73.76
67373;BME280;54257;54.496;18.412;2023-02-28T02:18:30;101359.59;;;-6.61;73.37
67373;BME280;54257;54.496;18.412;2023-02-28T02:21:18;101363.63;;;-6.64;73.50
67373;BME280;54257;54.496;18.412;2023-02-28T02:37:52;101358.54;;;-6.74;73.74
67373;BME280;54257;54.496;18.412;2023-02-28T02:40:30;101356.84;;;-6.79;73.72
67373;BME280;54257;54.496;18.412;2023-02-28T02:43:25;101358.91;;;-6.80;73.77
67373;BME280;54257;54.496;18.412;2023-02-28T02:45:58;101363.11;;;-6.83;73.56
67373;BME280;54257;54.496;18.412;2023-02-28T02:48:32;101362.30;;;-6.87;73.44
67373;BME280;54257;54.496;18.412;2023-02-28T02:51:04;101362.25;;;-6.90;73.40
67373;BME280;54257;54.496;18.412;2023-02-28T02:53:44;101362.91;;;-6.94;73.43
67373;BME280;54257;54.496;18.412;2023-02-28T02:56:19;101360.19;;;-6.99;73.37
67373;BME280;54257;54.496;18.412;2023-02-28T02:58:49;101359.19;;;-7.03;73.07
67373;BME280;54257;54.496;18.412;2023-02-28T03:01:20;101360.42;;;-7.12;72.67
67373;BME280;54257;54.496;18.412;2023-02-28T03:04:09;101358.89;;;-7.15;73.15
67373;BME280;54257;54.496;18.412;2023-02-28T03:06:37;101360.76;;;-7.16;73.50
67373;BME280;54257;54.496;18.412;2023-02-28T03:09:04;101362.73;;;-7.17;73.73
67373;BME280;54257;54.496;18.412;2023-02-28T03:11:32;101360.68;;;-7.17;73.93
67373;BME280;54257;54.496;18.412;2023-02-28T03:20:15;101357.84;;;-7.19;73.87
67373;BME280;54257;54.496;18.412;2023-02-28T03:22:53;101356.29;;;-7.25;73.58
67373;BME280;54257;54.496;18.412;2023-02-28T03:25:29;101356.30;;;-7.28;73.79
67373;BME280;54257;54.496;18.412;2023-02-28T03:31:03;101350.30;;;-7.38;73.77
67373;BME280;54257;54.496;18.412;2023-02-28T03:33:41;101360.85;;;-7.42;73.69
67373;BME280;54257;54.496;18.412;2023-02-28T03:36:14;101361.48;;;-7.41;74.09
67373;BME280;54257;54.496;18.412;2023-02-28T03:38:48;101359.22;;;-7.44;74.23
67373;BME280;54257;54.496;18.412;2023-02-28T03:41:21;101359.70;;;-7.46;74.22
67373;BME280;54257;54.496;18.412;2023-02-28T03:44:04;101357.21;;;-7.46;74.37
67373;BME280;54257;54.496;18.412;2023-02-28T03:46:36;101362.20;;;-7.47;74.57
67373;BME280;54257;54.496;18.412;2023-02-28T03:49:14;101363.92;;;-7.55;74.32
67373;BME280;54257;54.496;18.412;2023-02-28T03:51:46;101366.55;;;-7.54;75.02
67373;BME280;54257;54.496;18.412;2023-02-28T03:54:21;101367.19;;;-7.48;75.62
67373;BME280;54257;54.496;18.412;2023-02-28T03:59:42;101366.01;;;-7.37;75.85
67373;BME280;54257;54.496;18.412;2023-02-28T04:02:10;101357.96;;;-7.33;75.83
67373;BME280;54257;54.496;18.412;2023-02-28T04:04:37;101355.80;;;-7.27;75.90
67373;BME280;54257;54.496;18.412;2023-02-28T04:07:07;101357.84;;;-7.22;75.97
67373;BME280;54257;54.496;18.412;2023-02-28T04:09:35;101360.53;;;-7.18;75.94
67373;BME280;54257;54.496;18.412;2023-02-28T04:12:02;101359.62;;;-7.19;75.73
67373;BME280;54257;54.496;18.412;2023-02-28T04:14:29;101360.15;;;-7.19;75.46
67373;BME280;54257;54.496;18.412;2023-02-28T04:16:56;101361.99;;;-7.19;75.13
67373;BME280;54257;54.496;18.412;2023-02-28T04:19:23;101357.54;;;-7.20;74.70
67373;BME280;54257;54.496;18.412;2023-02-28T04:21:52;101355.83;;;-7.20;74.50
67373;BME280;54257;54.496;18.412;2023-02-28T04:24:24;101344.52;;;-7.21;75.13
67373;BME280;54257;54.496;18.412;2023-02-28T04:26:55;101344.27;;;-7.20;75.48
67373;BME280;54257;54.496;18.412;2023-02-28T04:29:27;101339.52;;;-7.18;75.62
67373;BME280;54257;54.496;18.412;2023-02-28T04:31:56;101346.85;;;-7.13;75.53
67373;BME280;54257;54.496;18.412;2023-02-28T04:34:27;101346.96;;;-7.09;75.58
67373;BME280;54257;54.496;18.412;2023-02-28T04:36:55;101350.05;;;-7.05;75.33
67373;BME280;54257;54.496;18.412;2023-02-28T04:39:23;101349.52;;;-7.01;75.73
67373;BME280;54257;54.496;18.412;2023-02-28T04:41:51;101352.67;;;-6.98;75.58
67373;BME280;54257;54.496;18.412;2023-02-28T04:44:17;101354.00;;;-6.99;75.29
67373;BME280;54257;54.496;18.412;2023-02-28T04:46:44;101357.23;;;-7.01;75.12
67373;BME280;54257;54.496;18.412;2023-02-28T04:49:11;101354.46;;;-7.01;74.92
67373;BME280;54257;54.496;18.412;2023-02-28T04:51:39;101349.32;;;-7.02;74.77
67373;BME280;54257;54.496;18.412;2023-02-28T04:54:07;101345.59;;;-7.03;74.85
67373;BME280;54257;54.496;18.412;2023-02-28T04:56:34;101350.77;;;-7.04;74.76
67373;BME280;54257;54.496;18.412;2023-02-28T04:59:01;101349.87;;;-7.07;74.55
67373;BME280;54257;54.496;18.412;2023-02-28T05:01:33;101352.15;;;-7.09;74.49
67373;BME280;54257;54.496;18.412;2023-02-28T05:04:02;101349.20;;;-7.10;74.42
67373;BME280;54257;54.496;18.412;2023-02-28T05:06:32;101348.04;;;-7.10;74.54
67373;BME280;54257;54.496;18.412;2023-02-28T05:08:59;101351.96;;;-7.07;74.61
67373;BME280;54257;54.496;18.412;2023-02-28T05:11:31;101352.13;;;-7.02;74.78
67373;BME280;54257;54.496;18.412;2023-02-28T05:14:03;101348.16;;;-7.04;74.58
67373;BME280;54257;54.496;18.412;2023-02-28T05:16:30;101346.40;;;-7.05;74.77
67373;BME280;54257;54.496;18.412;2023-02-28T05:18:58;101346.59;;;-7.06;74.58
67373;BME280;54257;54.496;18.412;2023-02-28T05:24:01;101343.74;;;-7.07;74.67
67373;BME280;54257;54.496;18.412;2023-02-28T05:26:30;101340.82;;;-7.10;74.55
67373;BME280;54257;54.496;18.412;2023-02-28T05:28:57;101339.73;;;-7.13;74.51
67373;BME280;54257;54.496;18.412;2023-02-28T05:31:24;101336.45;;;-7.17;74.45
67373;BME280;54257;54.496;18.412;2023-02-28T05:33:51;101338.97;;;-7.20;74.60
67373;BME280;54257;54.496;18.412;2023-02-28T05:36:19;101338.56;;;-7.22;74.71
67373;BME280;54257;54.496;18.412;2023-02-28T05:38:49;101337.70;;;-7.25;74.85
67373;BME280;54257;54.496;18.412;2023-02-28T05:41:20;101334.39;;;-7.27;75.03
67373;BME280;54257;54.496;18.412;2023-02-28T05:43:48;101331.51;;;-7.29;75.15
67373;BME280;54257;54.496;18.412;2023-02-28T05:46:15;101326.27;;;-7.33;75.22
67373;BME280;54257;54.496;18.412;2023-02-28T05:48:46;101318.83;;;-7.37;75.45
67373;BME280;54257;54.496;18.412;2023-02-28T05:51:17;101327.88;;;-7.38;75.68
67373;BME280;54257;54.496;18.412;2023-02-28T05:53:44;101330.67;;;-7.41;75.78
67373;BME280;54257;54.496;18.412;2023-02-28T05:56:11;101335.73;;;-7.41;76.01
67373;BME280;54257;54.496;18.412;2023-02-28T05:58:38;101340.45;;;-7.40;76.02
67373;BME280;54257;54.496;18.412;2023-02-28T06:01:32;101341.85;;;-7.35;76.37
67373;BME280;54257;54.496;18.412;2023-02-28T06:04:00;101346.55;;;-7.26;76.86
67373;BME280;54257;54.496;18.412;2023-02-28T06:06:28;101339.49;;;-7.18;77.18
67373;BME280;54257;54.496;18.412;2023-02-28T06:08:56;101339.23;;;-7.08;77.57
67373;BME280;54257;54.496;18.412;2023-02-28T06:11:23;101341.72;;;-6.99;77.78
67373;BME280;54257;54.496;18.412;2023-02-28T06:13:57;101349.98;;;-6.90;78.27
67373;BME280;54257;54.496;18.412;2023-02-28T06:16:27;101352.95;;;-6.81;78.52
67373;BME280;54257;54.496;18.412;2023-02-28T06:18:54;101354.77;;;-6.70;78.82
67373;BME280;54257;54.496;18.412;2023-02-28T06:21:23;101349.79;;;-6.59;79.11
67373;BME280;54257;54.496;18.412;2023-02-28T06:23:54;101350.38;;;-6.51;78.94
67373;BME280;54257;54.496;18.412;2023-02-28T06:26:24;101352.03;;;-6.46;78.78
67373;BME280;54257;54.496;18.412;2023-02-28T06:28:51;101351.69;;;-6.43;78.95
67373;BME280;54257;54.496;18.412;2023-02-28T06:31:25;101354.80;;;-6.31;79.93
67373;BME280;54257;54.496;18.412;2023-02-28T06:33:52;101357.77;;;-6.20;80.81
67373;BME280;54257;54.496;18.412;2023-02-28T06:36:19;101353.81;;;-6.07;81.90
67373;BME280;54257;54.496;18.412;2023-02-28T06:38:49;101351.61;;;-5.87;85.53
67373;BME280;54257;54.496;18.412;2023-02-28T06:41:23;101350.45;;;-5.56;89.85
67373;BME280;54257;54.496;18.412;2023-02-28T06:43:52;101346.77;;;-5.18;91.15
67373;BME280;54257;54.496;18.412;2023-02-28T06:46:20;101347.68;;;-4.74;92.87
67373;BME280;54257;54.496;18.412;2023-02-28T06:48:47;101347.77;;;-4.33;95.44
67373;BME280;54257;54.496;18.412;2023-02-28T06:51:46;101344.63;;;-3.95;95.92
67373;BME280;54257;54.496;18.412;2023-02-28T06:54:44;101342.31;;;-3.28;97.68
67373;BME280;54257;54.496;18.412;2023-02-28T06:57:11;101340.52;;;-2.61;96.32
67373;BME280;54257;54.496;18.412;2023-02-28T06:59:53;101335.95;;;-2.07;92.62
67373;BME280;54257;54.496;18.412;2023-02-28T07:02:27;101333.48;;;-1.57;92.60
67373;BME280;54257;54.496;18.412;2023-02-28T07:13:25;101327.57;;;0.15;85.09
67373;BME280;54257;54.496;18.412;2023-02-28T07:16:49;101321.48;;;0.87;85.96
67373;BME280;54257;54.496;18.412;2023-02-28T07:19:31;101315.99;;;1.36;82.91
67373;BME280;54257;54.496;18.412;2023-02-28T07:21:58;101321.36;;;1.76;79.55
67373;BME280;54257;54.496;18.412;2023-02-28T07:24:26;101314.56;;;2.15;78.60
67373;BME280;54257;54.496;18.412;2023-02-28T07:27:25;101311.05;;;2.44;75.72
67373;BME280;54257;54.496;18.412;2023-02-28T07:29:53;101306.80;;;2.89;74.29
67373;BME280;54257;54.496;18.412;2023-02-28T07:32:21;101307.35;;;3.32;73.61
67373;BME280;54257;54.496;18.412;2023-02-28T07:34:48;101306.65;;;3.67;72.54
67373;BME280;54257;54.496;18.412;2023-02-28T07:37:15;101306.55;;;4.12;72.36
67373;BME280;54257;54.496;18.412;2023-02-28T07:39:42;101306.44;;;4.53;71.40
67373;BME280;54257;54.496;18.412;2023-02-28T07:42:11;101297.79;;;4.93;71.67
67373;BME280;54257;54.496;18.412;2023-02-28T07:44:39;101295.68;;;5.26;70.81
67373;BME280;54257;54.496;18.412;2023-02-28T07:47:08;101293.42;;;5.45;69.58
67373;BME280;54257;54.496;18.412;2023-02-28T07:49:36;101292.64;;;5.55;66.82
67373;BME280;54257;54.496;18.412;2023-02-28T07:52:06;101290.94;;;5.55;66.62
67373;BME280;54257;54.496;18.412;2023-02-28T07:54:34;101292.41;;;5.63;65.55
67373;BME280;54257;54.496;18.412;2023-02-28T07:57:01;101296.30;;;5.69;65.14
67373;BME280;54257;54.496;18.412;2023-02-28T07:59:28;101295.90;;;5.85;64.90
67373;BME280;54257;54.496;18.412;2023-02-28T08:01:57;101298.59;;;6.02;64.44
67373;BME280;54257;54.496;18.412;2023-02-28T08:04:25;101293.92;;;6.16;64.50
67373;BME280;54257;54.496;18.412;2023-02-28T08:06:52;101295.55;;;6.36;63.35
67373;BME280;54257;54.496;18.412;2023-02-28T08:09:19;101293.52;;;6.51;62.95
67373;BME280;54257;54.496;18.412;2023-02-28T08:11:46;101298.87;;;6.68;61.97
67373;BME280;54257;54.496;18.412;2023-02-28T08:14:13;101299.92;;;6.85;61.38
67373;BME280;54257;54.496;18.412;2023-02-28T08:16:40;101307.52;;;7.07;61.64
67373;BME280;54257;54.496;18.412;2023-02-28T08:19:08;101305.09;;;7.32;61.35
67373;BME280;54257;54.496;18.412;2023-02-28T08:21:35;101300.25;;;7.53;59.47
67373;BME280;54257;54.496;18.412;2023-02-28T08:24:02;101301.13;;;7.71;59.28
67373;BME280;54257;54.496;18.412;2023-02-28T08:26:30;101292.05;;;7.80;57.90
67373;BME280;54257;54.496;18.412;2023-02-28T08:28:57;101290.52;;;7.80;56.56
67373;BME280;54257;54.496;18.412;2023-02-28T08:31:24;101287.57;;;7.82;56.57
67373;BME280;54257;54.496;18.412;2023-02-28T08:33:51;101291.34;;;7.82;55.26
67373;BME280;54257;54.496;18.412;2023-02-28T08:36:26;101290.27;;;7.82;55.24
67373;BME280;54257;54.496;18.412;2023-02-28T08:38:56;101291.52;;;7.97;55.51
67373;BME280;54257;54.496;18.412;2023-02-28T08:41:25;101295.56;;;8.03;53.24
67373;BME280;54257;54.496;18.412;2023-02-28T08:43:52;101294.77;;;8.15;55.39
67373;BME280;54257;54.496;18.412;2023-02-28T08:46:20;101295.87;;;8.48;55.81
67373;BME280;54257;54.496;18.412;2023-02-28T08:48:52;101293.09;;;8.73;53.37
67373;BME280;54257;54.496;18.412;2023-02-28T08:51:20;101298.39;;;8.55;50.89
67373;BME280;54257;54.496;18.412;2023-02-28T08:53:53;101307.32;;;8.28;52.65
67373;BME280;54257;54.496;18.412;2023-02-28T08:56:20;101313.73;;;8.44;53.90
67373;BME280;54257;54.496;18.412;2023-02-28T08:58:50;101303.55;;;8.82;54.58
67373;BME280;54257;54.496;18.412;2023-02-28T09:01:19;101305.91;;;9.09;53.23
67373;BME280;54257;54.496;18.412;2023-02-28T09:03:48;101304.47;;;9.10;51.40
67373;BME280;54257;54.496;18.412;2023-02-28T09:06:17;101307.41;;;9.15;51.53
67373;BME280;54257;54.496;18.412;2023-02-28T09:08:44;101305.89;;;9.23;50.98
67373;BME280;54257;54.496;18.412;2023-02-28T09:11:12;101308.68;;;9.28;51.07
67373;BME280;54257;54.496;18.412;2023-02-28T09:13:39;101310.61;;;9.49;51.69
67373;BME280;54257;54.496;18.412;2023-02-28T09:16:08;101310.17;;;9.75;51.52
67373;BME280;54257;54.496;18.412;2023-02-28T09:18:37;101308.44;;;9.87;48.31
67373;BME280;54257;54.496;18.412;2023-02-28T09:21:07;101304.53;;;9.79;47.65
67373;BME280;54257;54.496;18.412;2023-02-28T09:23:35;101301.88;;;9.73;47.72
67373;BME280;54257;54.496;18.412;2023-02-28T09:26:04;101296.56;;;9.68;48.35
67373;BME280;54257;54.496;18.412;2023-02-28T09:28:32;101298.25;;;9.68;48.42
67373;BME280;54257;54.496;18.412;2023-02-28T09:30:59;101297.08;;;9.68;47.75
67373;BME280;54257;54.496;18.412;2023-02-28T09:33:26;101298.85;;;9.66;47.97
67373;BME280;54257;54.496;18.412;2023-02-28T09:35:59;101293.63;;;9.76;48.55
67373;BME280;54257;54.496;18.412;2023-02-28T09:38:28;101294.67;;;9.80;48.73
67373;BME280;54257;54.496;18.412;2023-02-28T09:41:01;101295.86;;;9.97;48.55
67373;BME280;54257;54.496;18.412;2023-02-28T09:43:33;101290.81;;;10.15;48.61
67373;BME280;54257;54.496;18.412;2023-02-28T09:46:17;101292.03;;;10.28;47.96
67373;BME280;54257;54.496;18.412;2023-02-28T09:48:48;101289.54;;;10.48;48.45
67373;BME280;54257;54.496;18.412;2023-02-28T09:51:33;101289.91;;;10.61;47.45
67373;BME280;54257;54.496;18.412;2023-02-28T09:54:02;101288.73;;;10.80;47.41
67373;BME280;54257;54.496;18.412;2023-02-28T09:56:40;101287.77;;;10.83;46.35
67373;BME280;54257;54.496;18.412;2023-02-28T10:10:39;101275.39;;;10.53;44.30
67373;BME280;54257;54.496;18.412;2023-02-28T10:13:16;101275.96;;;10.54;45.40
67373;BME280;54257;54.496;18.412;2023-02-28T10:15:47;101267.48;;;10.43;43.57
67373;BME280;54257;54.496;18.412;2023-02-28T10:18:21;101272.61;;;10.25;44.16
67373;BME280;54257;54.496;18.412;2023-02-28T10:20:51;101272.63;;;10.21;44.42
67373;BME280;54257;54.496;18.412;2023-02-28T10:26:12;101280.36;;;10.35;45.93
67373;BME280;54257;54.496;18.412;2023-02-28T10:28:59;101282.20;;;10.66;45.89
67373;BME280;54257;54.496;18.412;2023-02-28T10:31:40;101284.20;;;10.88;45.45
67373;BME280;54257;54.496;18.412;2023-02-28T10:34:19;101284.77;;;11.08;45.38
67373;BME280;54257;54.496;18.412;2023-02-28T10:37:05;101286.14;;;11.37;45.38
67373;BME280;54257;54.496;18.412;2023-02-28T10:39:46;101288.88;;;11.57;44.34
67373;BME280;54257;54.496;18.412;2023-02-28T10:42:28;101284.48;;;11.74;43.96
67373;BME280;54257;54.496;18.412;2023-02-28T10:45:15;101289.78;;;11.93;43.57
67373;BME280;54257;54.496;18.412;2023-02-28T10:50:46;101292.05;;;11.94;41.30
67373;BME280;54257;54.496;18.412;2023-02-28T11:01:43;101277.17;;;11.45;42.78
67373;BME280;54257;54.496;18.412;2023-02-28T11:07:17;101270.64;;;11.39;42.73
67373;BME280;54257;54.496;18.412;2023-02-28T11:09:48;101268.57;;;11.43;42.93
67373;BME280;54257;54.496;18.412;2023-02-28T11:12:23;101269.51;;;11.56;43.73
67373;BME280;54257;54.496;18.412;2023-02-28T11:14:55;101266.73;;;11.70;43.60
67373;BME280;54257;54.496;18.412;2023-02-28T11:17:31;101260.07;;;11.90;43.35
67373;BME280;54257;54.496;18.412;2023-02-28T11:20:04;101260.16;;;12.09;43.37
67373;BME280;54257;54.496;18.412;2023-02-28T11:22:39;101256.10;;;12.28;42.37
67373;BME280;54257;54.496;18.412;2023-02-28T11:25:26;101252.11;;;12.37;42.54
67373;BME280;54257;54.496;18.412;2023-02-28T11:27:58;101250.89;;;12.59;42.92
67373;BME280;54257;54.496;18.412;2023-02-28T11:30:32;101245.59;;;12.60;40.95
67373;BME280;54257;54.496;18.412;2023-02-28T11:33:25;101242.54;;;12.49;40.81
67373;BME280;54257;54.496;18.412;2023-02-28T11:35:58;101239.85;;;12.46;40.54
67373;BME280;54257;54.496;18.412;2023-02-28T11:38:28;101237.80;;;12.40;40.41
67373;BME280;54257;54.496;18.412;2023-02-28T11:41:03;101235.95;;;12.36;39.76
67373;BME280;54257;54.496;18.412;2023-02-28T11:43:53;101233.63;;;12.27;39.58
67373;BME280;54257;54.496;18.412;2023-02-28T11:46:52;101225.09;;;12.11;40.06
67373;BME280;54257;54.496;18.412;2023-02-28T11:55:39;101200.50;;;12.24;39.34
67373;BME280;54257;54.496;18.412;2023-02-28T12:01:35;101195.89;;;11.96;39.90
67373;BME280;54257;54.496;18.412;2023-02-28T12:07:06;101191.86;;;11.89;40.96
67373;BME280;54257;54.496;18.412;2023-02-28T12:14:09;101186.07;;;11.84;41.11
67373;BME280;54257;54.496;18.412;2023-02-28T12:22:32;101189.41;;;11.19;41.02
67373;BME280;54257;54.496;18.412;2023-02-28T12:28:08;101188.31;;;11.37;42.22
67373;BME280;54257;54.496;18.412;2023-02-28T12:30:39;101189.75;;;11.50;41.94
67373;BME280;54257;54.496;18.412;2023-02-28T12:33:14;101192.89;;;11.52;41.67
67373;BME280;54257;54.496;18.412;2023-02-28T12:35:54;101187.40;;;11.57;42.05
67373;BME280;54257;54.496;18.412;2023-02-28T12:38:26;101187.15;;;11.59;41.66
67373;BME280;54257;54.496;18.412;2023-02-28T12:41:04;101181.72;;;11.61;41.35
67373;BME280;54257;54.496;18.412;2023-02-28T12:43:44;101180.77;;;11.69;42.03
67373;BME280;54257;54.496;18.412;2023-02-28T12:46:21;101178.58;;;11.70;41.22
67373;BME280;54257;54.496;18.412;2023-02-28T12:48:56;101174.92;;;11.52;40.41
67373;BME280;54257;54.496;18.412;2023-02-28T12:51:25;101180.02;;;11.30;40.74
67373;BME280;54257;54.496;18.412;2023-02-28T12:54:07;101185.47;;;10.94;40.19
67373;BME280;54257;54.496;18.412;2023-02-28T12:59:20;101183.68;;;10.58;42.96
67373;BME280;54257;54.496;18.412;2023-02-28T13:04:40;101177.51;;;10.26;42.93
67373;BME280;54257;54.496;18.412;2023-02-28T13:07:20;101172.92;;;10.26;44.00
67373;BME280;54257;54.496;18.412;2023-02-28T13:09:58;101174.46;;;10.26;44.11
67373;BME280;54257;54.496;18.412;2023-02-28T13:12:26;101171.52;;;10.21;44.38
67373;BME280;54257;54.496;18.412;2023-02-28T13:15:21;101172.38;;;10.03;43.82
67373;BME280;54257;54.496;18.412;2023-02-28T13:17:52;101173.94;;;9.87;44.83
67373;BME280;54257;54.496;18.412;2023-02-28T13:22:54;101171.27;;;10.01;45.71
67373;BME280;54257;54.496;18.412;2023-02-28T13:27:54;101165.88;;;9.95;45.57
67373;BME280;54257;54.496;18.412;2023-02-28T13:33:33;101161.00;;;9.66;46.28
67373;BME280;54257;54.496;18.412;2023-02-28T13:38:47;101150.29;;;9.50;45.87
67373;BME280;54257;54.496;18.412;2023-02-28T13:44:22;101146.27;;;8.82;47.01
67373;BME280;54257;54.496;18.412;2023-02-28T14:05:33;101122.49;;;7.80;51.39
67373;BME280;54257;54.496;18.412;2023-02-28T14:10:47;101133.01;;;7.40;52.86
67373;BME280;54257;54.496;18.412;2023-02-28T14:15:57;101122.31;;;7.20;54.10
67373;BME280;54257;54.496;18.412;2023-02-28T14:18:31;101123.56;;;7.15;54.44
67373;BME280;54257;54.496;18.412;2023-02-28T14:21:10;101118.12;;;7.07;54.60
67373;BME280;54257;54.496;18.412;2023-02-28T14:32:47;101119.45;;;6.30;56.45
67373;BME280;54257;54.496;18.412;2023-02-28T14:37:41;101119.02;;;5.93;57.75
67373;BME280;54257;54.496;18.412;2023-02-28T14:40:21;101119.45;;;5.80;58.14
67373;BME280;54257;54.496;18.412;2023-02-28T14:43:02;101119.91;;;5.66;58.66
67373;BME280;54257;54.496;18.412;2023-02-28T14:45:32;101121.45;;;5.57;59.00
67373;BME280;54257;54.496;18.412;2023-02-28T14:48:02;101124.35;;;5.52;59.31
67373;BME280;54257;54.496;18.412;2023-02-28T14:50:34;101124.20;;;5.43;59.74
67373;BME280;54257;54.496;18.412;2023-02-28T14:53:02;101125.52;;;5.33;59.83
67373;BME280;54257;54.496;18.412;2023-02-28T14:55:36;101129.12;;;5.22;60.49
67373;BME280;54257;54.496;18.412;2023-02-28T14:58:06;101133.59;;;5.09;60.69
67373;BME280;54257;54.496;18.412;2023-02-28T15:00:35;101128.77;;;4.98;61.08
67373;BME280;54257;54.496;18.412;2023-02-28T15:03:34;101122.35;;;4.87;61.46
67373;BME280;54257;54.496;18.412;2023-02-28T15:06:13;101117.99;;;4.73;61.76
67373;BME280;54257;54.496;18.412;2023-02-28T15:08:40;101108.45;;;4.66;62.18
67373;BME280;54257;54.496;18.412;2023-02-28T15:11:15;101102.73;;;4.61;62.57
67373;BME280;54257;54.496;18.412;2023-02-28T15:16:25;101089.61;;;4.45;63.02
67373;BME280;54257;54.496;18.412;2023-02-28T15:19:00;101095.13;;;4.36;63.66
67373;BME280;54257;54.496;18.412;2023-02-28T15:21:33;101099.84;;;4.21;63.97
67373;BME280;54257;54.496;18.412;2023-02-28T15:26:45;101099.63;;;4.09;64.01
67373;BME280;54257;54.496;18.412;2023-02-28T15:29:14;101098.20;;;4.03;64.37
67373;BME280;54257;54.496;18.412;2023-02-28T15:31:49;101098.26;;;3.95;64.79
67373;BME280;54257;54.496;18.412;2023-02-28T15:34:25;101101.55;;;3.88;65.11
67373;BME280;54257;54.496;18.412;2023-02-28T15:36:54;101104.50;;;3.84;65.18
67373;BME280;54257;54.496;18.412;2023-02-28T15:39:25;101103.58;;;3.80;65.43
67373;BME280;54257;54.496;18.412;2023-02-28T15:42:18;101103.03;;;3.74;65.52
67373;BME280;54257;54.496;18.412;2023-02-28T15:44:47;101097.83;;;3.66;65.84